sensor_id;sensor_type;location;lat;lon;timestamp;temperature;humidity
71514;DHT22;59335;46.652;21.272;2022-10-16T00:02:22;21.14;52.55
71514;DHT22;59335;46.652;21.272;2022-10-16T00:05:25;21.20;52.47
71514;DHT22;59335;46.652;21.272;2022-10-16T00:08:28;21.17;52.50
71514;DHT22;59335;46.652;21.272;2022-10-16T00:11:32;21.17;52.53
71514;DHT22;59335;46.652;21.272;2022-10-16T00:14:35;21.17;52.48
71514;DHT22;59335;46.652;21.272;2022-10-16T00:17:38;21.17;52.50
71514;DHT22;59335;46.652;21.272;2022-10-16T00:20:41;21.15;52.47
71514;DHT22;59335;46.652;21.272;2022-10-16T00:23:43;21.19;52.38
71514;DHT22;59335;46.652;21.272;2022-10-16T00:26:49;21.19;52.42
71514;DHT22;59335;46.652;21.272;2022-10-16T00:29:52;21.15;52.38
71514;DHT22;59335;46.652;21.272;2022-10-16T00:32:55;21.20;52.33
71514;DHT22;59335;46.652;21.272;2022-10-16T00:35:59;21.14;52.40
71514;DHT22;59335;46.652;21.272;2022-10-16T00:39:02;21.15;52.36
71514;DHT22;59335;46.652;21.272;2022-10-16T00:42:05;21.13;52.41
71514;DHT22;59335;46.652;21.272;2022-10-16T00:45:09;21.15;52.20
71514;DHT22;59335;46.652;21.272;2022-10-16T00:48:13;21.15;52.16
71514;DHT22;59335;46.652;21.272;2022-10-16T00:51:19;21.15;52.09
71514;DHT22;59335;46.652;21.272;2022-10-16T00:54:29;21.15;52.17
71514;DHT22;59335;46.652;21.272;2022-10-16T00:57:32;21.17;52.04
71514;DHT22;59335;46.652;21.272;2022-10-16T01:00:35;21.14;52.09
71514;DHT22;59335;46.652;21.272;2022-10-16T01:03:38;21.17;52.09
71514;DHT22;59335;46.652;21.272;2022-10-16T01:06:48;21.15;52.06
71514;DHT22;59335;46.652;21.272;2022-10-16T01:13:21;21.11;52.06
71514;DHT22;59335;46.652;21.272;2022-10-16T01:16:48;21.13;52.02
71514;DHT22;59335;46.652;21.272;2022-10-16T01:23:21;21.08;52.01
71514;DHT22;59335;46.652;21.272;2022-10-16T01:29:59;21.11;51.86
71514;DHT22;59335;46.652;21.272;2022-10-16T01:36:18;21.10;51.83
71514;DHT22;59335;46.652;21.272;2022-10-16T01:39:29;21.14;51.79
71514;DHT22;59335;46.652;21.272;2022-10-16T01:42:42;21.10;51.80
71514;DHT22;59335;46.652;21.272;2022-10-16T01:45:47;21.08;51.83
71514;DHT22;59335;46.652;21.272;2022-10-16T01:48:51;21.10;51.93
71514;DHT22;59335;46.652;21.272;2022-10-16T01:51:56;21.10;51.81
71514;DHT22;59335;46.652;21.272;2022-10-16T01:55:02;21.07;51.84
71514;DHT22;59335;46.652;21.272;2022-10-16T01:58:08;21.10;51.72
71514;DHT22;59335;46.652;21.272;2022-10-16T02:01:13;21.07;51.82
71514;DHT22;59335;46.652;21.272;2022-10-16T02:04:26;21.07;51.80
71514;DHT22;59335;46.652;21.272;2022-10-16T02:07:30;21.11;51.74
71514;DHT22;59335;46.652;21.272;2022-10-16T02:10:35;21.06;51.67
71514;DHT22;59335;46.652;21.272;2022-10-16T02:13:39;21.11;51.67
71514;DHT22;59335;46.652;21.272;2022-10-16T02:16:46;21.10;51.62
71514;DHT22;59335;46.652;21.272;2022-10-16T02:19:51;21.07;51.75
71514;DHT22;59335;46.652;21.272;2022-10-16T02:22:55;21.10;51.66
71514;DHT22;59335;46.652;21.272;2022-10-16T02:26:02;21.07;51.64
71514;DHT22;59335;46.652;21.272;2022-10-16T02:29:10;21.06;51.71
71514;DHT22;59335;46.652;21.272;2022-10-16T02:32:15;21.03;51.66
71514;DHT22;59335;46.652;21.272;2022-10-16T02:35:21;21.07;51.64
71514;DHT22;59335;46.652;21.272;2022-10-16T02:38:25;21.06;51.54
71514;DHT22;59335;46.652;21.272;2022-10-16T02:41:28;21.07;51.57
71514;DHT22;59335;46.652;21.272;2022-10-16T02:44:31;21.10;51.47
71514;DHT22;59335;46.652;21.272;2022-10-16T02:47:34;21.04;51.49
71514;DHT22;59335;46.652;21.272;2022-10-16T02:50:37;21.06;51.49
71514;DHT22;59335;46.652;21.272;2022-10-16T02:53:39;21.07;51.35
71514;DHT22;59335;46.652;21.272;2022-10-16T02:56:42;21.06;51.42
71514;DHT22;59335;46.652;21.272;2022-10-16T02:59:45;21.03;51.40
71514;DHT22;59335;46.652;21.272;2022-10-16T03:02:47;21.03;51.35
71514;DHT22;59335;46.652;21.272;2022-10-16T03:05:50;21.02;51.33
71514;DHT22;59335;46.652;21.272;2022-10-16T03:08:53;21.02;51.32
71514;DHT22;59335;46.652;21.272;2022-10-16T03:11:55;21.04;51.35
71514;DHT22;59335;46.652;21.272;2022-10-16T03:14:58;20.99;51.30
71514;DHT22;59335;46.652;21.272;2022-10-16T03:18:01;21.00;51.24
71514;DHT22;59335;46.652;21.272;2022-10-16T03:21:03;21.00;51.25
71514;DHT22;59335;46.652;21.272;2022-10-16T03:24:06;21.00;51.32
71514;DHT22;59335;46.652;21.272;2022-10-16T03:27:09;20.99;51.30
71514;DHT22;59335;46.652;21.272;2022-10-16T03:30:11;21.00;51.30
71514;DHT22;59335;46.652;21.272;2022-10-16T03:33:14;21.02;51.12
71514;DHT22;59335;46.652;21.272;2022-10-16T03:36:17;21.04;51.11
71514;DHT22;59335;46.652;21.272;2022-10-16T03:39:19;20.99;51.12
71514;DHT22;59335;46.652;21.272;2022-10-16T03:42:22;21.02;51.06
71514;DHT22;59335;46.652;21.272;2022-10-16T03:45:25;20.97;51.04
71514;DHT22;59335;46.652;21.272;2022-10-16T03:48:28;20.97;51.12
71514;DHT22;59335;46.652;21.272;2022-10-16T03:51:31;20.99;51.08
71514;DHT22;59335;46.652;21.272;2022-10-16T03:54:34;20.97;51.07
71514;DHT22;59335;46.652;21.272;2022-10-16T03:57:36;20.99;51.04
71514;DHT22;59335;46.652;21.272;2022-10-16T04:00:45;20.99;51.01
71514;DHT22;59335;46.652;21.272;2022-10-16T04:03:48;20.96;51.06
71514;DHT22;59335;46.652;21.272;2022-10-16T04:06:51;20.94;51.02
71514;DHT22;59335;46.652;21.272;2022-10-16T04:09:54;20.97;50.98
71514;DHT22;59335;46.652;21.272;2022-10-16T04:12:56;21.00;51.00
71514;DHT22;59335;46.652;21.272;2022-10-16T04:16:03;20.99;51.01
71514;DHT22;59335;46.652;21.272;2022-10-16T04:19:09;20.96;51.00
71514;DHT22;59335;46.652;21.272;2022-10-16T04:22:13;20.94;51.05
71514;DHT22;59335;46.652;21.272;2022-10-16T04:25:16;20.94;51.08
71514;DHT22;59335;46.652;21.272;2022-10-16T04:28:18;20.97;50.92
71514;DHT22;59335;46.652;21.272;2022-10-16T04:31:21;21.02;50.88
71514;DHT22;59335;46.652;21.272;2022-10-16T04:34:24;21.02;50.86
71514;DHT22;59335;46.652;21.272;2022-10-16T04:37:27;20.96;51.00
71514;DHT22;59335;46.652;21.272;2022-10-16T04:40:30;20.99;50.88
71514;DHT22;59335;46.652;21.272;2022-10-16T04:43:38;20.94;50.96
71514;DHT22;59335;46.652;21.272;2022-10-16T04:46:41;20.97;50.87
71514;DHT22;59335;46.652;21.272;2022-10-16T04:49:44;20.93;50.86
71514;DHT22;59335;46.652;21.272;2022-10-16T04:52:46;20.94;50.88
71514;DHT22;59335;46.652;21.272;2022-10-16T04:55:50;20.93;50.79
71514;DHT22;59335;46.652;21.272;2022-10-16T04:58:52;20.94;50.79
71514;DHT22;59335;46.652;21.272;2022-10-16T05:01:55;20.96;50.70
71514;DHT22;59335;46.652;21.272;2022-10-16T05:05:00;20.99;50.65
71514;DHT22;59335;46.652;21.272;2022-10-16T05:08:02;20.93;50.69
71514;DHT22;59335;46.652;21.272;2022-10-16T05:11:06;20.93;50.72
71514;DHT22;59335;46.652;21.272;2022-10-16T05:14:09;20.96;50.70
71514;DHT22;59335;46.652;21.272;2022-10-16T05:17:14;20.93;50.75
71514;DHT22;59335;46.652;21.272;2022-10-16T05:20:16;20.96;50.52
71514;DHT22;59335;46.652;21.272;2022-10-16T05:23:19;20.93;50.64
71514;DHT22;59335;46.652;21.272;2022-10-16T05:26:21;20.94;50.59
71514;DHT22;59335;46.652;21.272;2022-10-16T05:29:24;20.96;50.54
71514;DHT22;59335;46.652;21.272;2022-10-16T05:32:27;20.97;50.50
71514;DHT22;59335;46.652;21.272;2022-10-16T05:35:29;21.00;50.46
71514;DHT22;59335;46.652;21.272;2022-10-16T05:38:32;20.97;50.47
71514;DHT22;59335;46.652;21.272;2022-10-16T05:41:34;21.02;50.40
71514;DHT22;59335;46.652;21.272;2022-10-16T05:44:37;21.04;50.34
71514;DHT22;59335;46.652;21.272;2022-10-16T05:47:40;21.06;50.36
71514;DHT22;59335;46.652;21.272;2022-10-16T05:50:42;21.07;50.27
71514;DHT22;59335;46.652;21.272;2022-10-16T05:53:45;21.08;50.30
71514;DHT22;59335;46.652;21.272;2022-10-16T05:56:48;21.10;50.32
71514;DHT22;59335;46.652;21.272;2022-10-16T05:59:50;21.07;50.31
71514;DHT22;59335;46.652;21.272;2022-10-16T06:02:53;21.11;50.27
71514;DHT22;59335;46.652;21.272;2022-10-16T06:05:56;21.14;50.22
71514;DHT22;59335;46.652;21.272;2022-10-16T06:09:01;21.14;50.18
71514;DHT22;59335;46.652;21.272;2022-10-16T06:12:04;21.15;50.14
71514;DHT22;59335;46.652;21.272;2022-10-16T06:15:07;21.17;50.09
71514;DHT22;59335;46.652;21.272;2022-10-16T06:18:10;21.19;49.97
71514;DHT22;59335;46.652;21.272;2022-10-16T06:21:21;21.21;49.94
71514;DHT22;59335;46.652;21.272;2022-10-16T06:24:24;21.26;49.82
71514;DHT22;59335;46.652;21.272;2022-10-16T06:27:27;21.26;49.78
71514;DHT22;59335;46.652;21.272;2022-10-16T06:30:31;21.28;49.71
71514;DHT22;59335;46.652;21.272;2022-10-16T06:33:34;21.32;49.60
71514;DHT22;59335;46.652;21.272;2022-10-16T06:36:39;21.35;49.56
71514;DHT22;59335;46.652;21.272;2022-10-16T06:39:41;21.38;49.59
71514;DHT22;59335;46.652;21.272;2022-10-16T06:42:44;21.44;49.57
71514;DHT22;59335;46.652;21.272;2022-10-16T06:45:54;21.45;49.50
71514;DHT22;59335;46.652;21.272;2022-10-16T06:48:58;21.48;49.56
71514;DHT22;59335;46.652;21.272;2022-10-16T06:52:00;21.51;49.70
71514;DHT22;59335;46.652;21.272;2022-10-16T06:55:04;21.52;49.71
71514;DHT22;59335;46.652;21.272;2022-10-16T06:58:08;21.57;49.76
71514;DHT22;59335;46.652;21.272;2022-10-16T07:01:12;21.59;49.71
71514;DHT22;59335;46.652;21.272;2022-10-16T07:04:16;21.61;49.65
71514;DHT22;59335;46.652;21.272;2022-10-16T07:07:20;21.66;49.59
71514;DHT22;59335;46.652;21.272;2022-10-16T07:10:22;21.65;49.60
71514;DHT22;59335;46.652;21.272;2022-10-16T07:13:26;21.71;49.50
71514;DHT22;59335;46.652;21.272;2022-10-16T07:16:31;21.71;49.49
71514;DHT22;59335;46.652;21.272;2022-10-16T07:19:33;21.74;49.36
71514;DHT22;59335;46.652;21.272;2022-10-16T07:22:36;21.77;49.35
71514;DHT22;59335;46.652;21.272;2022-10-16T07:25:39;21.78;49.31
71514;DHT22;59335;46.652;21.272;2022-10-16T07:28:42;21.78;49.31
71514;DHT22;59335;46.652;21.272;2022-10-16T07:31:47;21.82;49.27
71514;DHT22;59335;46.652;21.272;2022-10-16T07:34:52;21.82;49.30
71514;DHT22;59335;46.652;21.272;2022-10-16T07:37:55;21.83;49.29
71514;DHT22;59335;46.652;21.272;2022-10-16T07:40:59;21.85;49.24
71514;DHT22;59335;46.652;21.272;2022-10-16T07:44:02;21.86;49.25
71514;DHT22;59335;46.652;21.272;2022-10-16T07:47:06;21.89;49.22
71514;DHT22;59335;46.652;21.272;2022-10-16T07:50:10;21.92;49.14
71514;DHT22;59335;46.652;21.272;2022-10-16T07:53:13;21.92;49.06
71514;DHT22;59335;46.652;21.272;2022-10-16T07:56:17;21.95;49.10
71514;DHT22;59335;46.652;21.272;2022-10-16T07:59:20;21.95;49.05
71514;DHT22;59335;46.652;21.272;2022-10-16T08:02:23;21.98;49.00
71514;DHT22;59335;46.652;21.272;2022-10-16T08:05:27;21.99;48.97
71514;DHT22;59335;46.652;21.272;2022-10-16T08:08:30;22.03;48.99
71514;DHT22;59335;46.652;21.272;2022-10-16T08:11:33;22.05;48.92
71514;DHT22;59335;46.652;21.272;2022-10-16T08:14:35;22.02;48.91
71514;DHT22;59335;46.652;21.272;2022-10-16T08:17:38;22.05;49.00
71514;DHT22;59335;46.652;21.272;2022-10-16T08:20:42;22.06;49.00
71514;DHT22;59335;46.652;21.272;2022-10-16T08:23:45;22.06;49.02
71514;DHT22;59335;46.652;21.272;2022-10-16T08:26:49;22.05;49.08
71514;DHT22;59335;46.652;21.272;2022-10-16T08:29:52;22.05;49.02
71514;DHT22;59335;46.652;21.272;2022-10-16T08:32:54;22.07;49.13
71514;DHT22;59335;46.652;21.272;2022-10-16T08:35:57;22.06;49.15
71514;DHT22;59335;46.652;21.272;2022-10-16T08:38:59;22.06;49.16
71514;DHT22;59335;46.652;21.272;2022-10-16T08:42:36;22.06;49.19
71514;DHT22;59335;46.652;21.272;2022-10-16T08:49:24;22.05;49.33
71514;DHT22;59335;46.652;21.272;2022-10-16T08:52:31;22.05;49.28
71514;DHT22;59335;46.652;21.272;2022-10-16T08:55:42;22.06;49.33
71514;DHT22;59335;46.652;21.272;2022-10-16T08:58:47;22.02;49.39
71514;DHT22;59335;46.652;21.272;2022-10-16T09:01:51;22.05;49.47
71514;DHT22;59335;46.652;21.272;2022-10-16T09:11:48;22.00;49.49
71514;DHT22;59335;46.652;21.272;2022-10-16T09:18:25;22.00;49.54
71514;DHT22;59335;46.652;21.272;2022-10-16T09:21:36;22.00;49.57
71514;DHT22;59335;46.652;21.272;2022-10-16T09:24:39;22.00;49.55
71514;DHT22;59335;46.652;21.272;2022-10-16T09:27:45;22.00;49.59
71514;DHT22;59335;46.652;21.272;2022-10-16T09:30:48;21.98;49.63
71514;DHT22;59335;46.652;21.272;2022-10-16T09:34:00;21.96;49.70
71514;DHT22;59335;46.652;21.272;2022-10-16T09:37:12;21.95;49.70
71514;DHT22;59335;46.652;21.272;2022-10-16T09:40:32;21.95;49.66
71514;DHT22;59335;46.652;21.272;2022-10-16T09:46:42;21.92;49.72
71514;DHT22;59335;46.652;21.272;2022-10-16T09:49:53;21.92;49.79
71514;DHT22;59335;46.652;21.272;2022-10-16T09:53:10;21.93;49.76
71514;DHT22;59335;46.652;21.272;2022-10-16T09:56:28;21.90;49.81
71514;DHT22;59335;46.652;21.272;2022-10-16T09:59:31;21.89;49.82
71514;DHT22;59335;46.652;21.272;2022-10-16T10:02:35;21.89;49.89
71514;DHT22;59335;46.652;21.272;2022-10-16T10:05:40;21.89;49.88
71514;DHT22;59335;46.652;21.272;2022-10-16T10:08:55;21.86;49.90
71514;DHT22;59335;46.652;21.272;2022-10-16T10:11:59;21.88;49.96
71514;DHT22;59335;46.652;21.272;2022-10-16T10:15:11;21.88;49.92
71514;DHT22;59335;46.652;21.272;2022-10-16T10:18:19;21.85;49.98
71514;DHT22;59335;46.652;21.272;2022-10-16T10:21:23;21.88;49.97
71514;DHT22;59335;46.652;21.272;2022-10-16T10:24:26;21.85;50.00
71514;DHT22;59335;46.652;21.272;2022-10-16T10:51:44;21.81;50.10
71514;DHT22;59335;46.652;21.272;2022-10-16T10:54:57;21.77;50.07
71514;DHT22;59335;46.652;21.272;2022-10-16T11:01:13;21.79;50.07
71514;DHT22;59335;46.652;21.272;2022-10-16T11:04:46;21.78;50.10
71514;DHT22;59335;46.652;21.272;2022-10-16T11:11:13;21.77;50.14
71514;DHT22;59335;46.652;21.272;2022-10-16T11:14:20;21.78;50.20
71514;DHT22;59335;46.652;21.272;2022-10-16T11:18:29;21.77;50.07
71514;DHT22;59335;46.652;21.272;2022-10-16T11:21:23;21.77;50.15
71514;DHT22;59335;46.652;21.272;2022-10-16T11:24:44;21.74;50.18
71514;DHT22;59335;46.652;21.272;2022-10-16T11:27:56;21.75;50.15
71514;DHT22;59335;46.652;21.272;2022-10-16T11:31:12;21.75;50.17
71514;DHT22;59335;46.652;21.272;2022-10-16T11:34:44;21.74;50.06
71514;DHT22;59335;46.652;21.272;2022-10-16T11:37:49;21.74;50.01
71514;DHT22;59335;46.652;21.272;2022-10-16T11:40:58;21.72;50.03
71514;DHT22;59335;46.652;21.272;2022-10-16T11:47:45;21.75;50.04
71514;DHT22;59335;46.652;21.272;2022-10-16T11:51:46;21.72;50.01
71514;DHT22;59335;46.652;21.272;2022-10-16T11:58:03;21.71;50.06
71514;DHT22;59335;46.652;21.272;2022-10-16T12:04:34;21.69;49.97
71514;DHT22;59335;46.652;21.272;2022-10-16T12:11:23;21.68;49.82
71514;DHT22;59335;46.652;21.272;2022-10-16T12:17:37;21.69;49.86
71514;DHT22;59335;46.652;21.272;2022-10-16T12:20:39;21.66;49.84
71514;DHT22;59335;46.652;21.272;2022-10-16T12:23:50;21.69;49.84
71514;DHT22;59335;46.652;21.272;2022-10-16T12:26:53;21.68;49.74
71514;DHT22;59335;46.652;21.272;2022-10-16T12:30:02;21.69;49.72
71514;DHT22;59335;46.652;21.272;2022-10-16T12:33:19;21.69;49.81
71514;DHT22;59335;46.652;21.272;2022-10-16T12:36:34;21.68;49.83
71514;DHT22;59335;46.652;21.272;2022-10-16T12:39:37;21.65;49.81
71514;DHT22;59335;46.652;21.272;2022-10-16T12:42:40;21.65;49.86
71514;DHT22;59335;46.652;21.272;2022-10-16T12:45:43;21.65;49.84
71514;DHT22;59335;46.652;21.272;2022-10-16T12:48:47;21.65;49.89
71514;DHT22;59335;46.652;21.272;2022-10-16T12:52:44;21.66;49.88
71514;DHT22;59335;46.652;21.272;2022-10-16T12:56:19;21.65;49.88
71514;DHT22;59335;46.652;21.272;2022-10-16T13:29:33;21.63;49.77
71514;DHT22;59335;46.652;21.272;2022-10-16T13:32:36;21.62;49.72
71514;DHT22;59335;46.652;21.272;2022-10-16T13:35:50;21.62;49.76
71514;DHT22;59335;46.652;21.272;2022-10-16T13:39:29;21.59;49.88
71514;DHT22;59335;46.652;21.272;2022-10-16T13:42:32;21.59;49.83
71514;DHT22;59335;46.652;21.272;2022-10-16T13:45:35;21.57;49.89
71514;DHT22;59335;46.652;21.272;2022-10-16T13:48:38;21.58;49.90
71514;DHT22;59335;46.652;21.272;2022-10-16T13:51:41;21.58;49.90
71514;DHT22;59335;46.652;21.272;2022-10-16T13:54:44;21.58;49.88
71514;DHT22;59335;46.652;21.272;2022-10-16T13:57:46;21.58;49.80
71514;DHT22;59335;46.652;21.272;2022-10-16T14:00:57;21.58;49.79
71514;DHT22;59335;46.652;21.272;2022-10-16T14:04:08;21.57;49.79
71514;DHT22;59335;46.652;21.272;2022-10-16T14:07:20;21.57;49.69
71514;DHT22;59335;46.652;21.272;2022-10-16T14:10:30;21.55;49.75
71514;DHT22;59335;46.652;21.272;2022-10-16T14:13:38;21.55;49.66
71514;DHT22;59335;46.652;21.272;2022-10-16T14:16:43;21.55;49.63
71514;DHT22;59335;46.652;21.272;2022-10-16T14:19:47;21.54;49.71
71514;DHT22;59335;46.652;21.272;2022-10-16T14:23:35;21.54;49.77
71514;DHT22;59335;46.652;21.272;2022-10-16T14:26:28;21.52;49.78
71514;DHT22;59335;46.652;21.272;2022-10-16T14:29:31;21.54;49.80
71514;DHT22;59335;46.652;21.272;2022-10-16T14:32:34;21.51;49.82
71514;DHT22;59335;46.652;21.272;2022-10-16T14:35:38;21.54;49.78
71514;DHT22;59335;46.652;21.272;2022-10-16T14:39:00;21.52;49.74
71514;DHT22;59335;46.652;21.272;2022-10-16T14:42:04;21.51;49.57
71514;DHT22;59335;46.652;21.272;2022-10-16T14:45:09;21.52;49.60
71514;DHT22;59335;46.652;21.272;2022-10-16T14:48:17;21.50;49.60
71514;DHT22;59335;46.652;21.272;2022-10-16T14:51:22;21.48;49.58
71514;DHT22;59335;46.652;21.272;2022-10-16T14:54:25;21.51;49.65
71514;DHT22;59335;46.652;21.272;2022-10-16T14:57:30;21.50;49.66
71514;DHT22;59335;46.652;21.272;2022-10-16T15:00:33;21.48;49.70
71514;DHT22;59335;46.652;21.272;2022-10-16T15:03:37;21.50;49.66
71514;DHT22;59335;46.652;21.272;2022-10-16T15:06:40;21.47;49.62
71514;DHT22;59335;46.652;21.272;2022-10-16T15:09:44;21.48;49.56
71514;DHT22;59335;46.652;21.272;2022-10-16T15:12:50;21.48;49.66
71514;DHT22;59335;46.652;21.272;2022-10-16T15:15:54;21.48;49.68
71514;DHT22;59335;46.652;21.272;2022-10-16T15:18:57;21.45;49.72
71514;DHT22;59335;46.652;21.272;2022-10-16T15:22:00;21.47;49.75
71514;DHT22;59335;46.652;21.272;2022-10-16T15:25:16;21.47;49.77
71514;DHT22;59335;46.652;21.272;2022-10-16T15:28:23;21.48;49.82
71514;DHT22;59335;46.652;21.272;2022-10-16T15:31:26;21.45;49.82
71514;DHT22;59335;46.652;21.272;2022-10-16T15:34:29;21.47;49.85
71514;DHT22;59335;46.652;21.272;2022-10-16T15:37:32;21.45;49.85
71514;DHT22;59335;46.652;21.272;2022-10-16T15:40:35;21.44;49.84
71514;DHT22;59335;46.652;21.272;2022-10-16T15:43:38;21.42;49.88
71514;DHT22;59335;46.652;21.272;2022-10-16T15:46:41;21.44;49.92
71514;DHT22;59335;46.652;21.272;2022-10-16T15:49:45;21.44;49.92
71514;DHT22;59335;46.652;21.272;2022-10-16T15:52:49;21.40;50.00
71514;DHT22;59335;46.652;21.272;2022-10-16T15:55:52;21.38;50.06
71514;DHT22;59335;46.652;21.272;2022-10-16T15:58:55;21.41;50.08
71514;DHT22;59335;46.652;21.272;2022-10-16T16:02:00;21.41;50.03
71514;DHT22;59335;46.652;21.272;2022-10-16T16:05:03;21.38;50.02
71514;DHT22;59335;46.652;21.272;2022-10-16T16:08:06;21.38;50.07
71514;DHT22;59335;46.652;21.272;2022-10-16T16:11:13;21.35;50.05
71514;DHT22;59335;46.652;21.272;2022-10-16T16:14:16;21.38;50.08
71514;DHT22;59335;46.652;21.272;2022-10-16T16:17:19;21.37;50.09
71514;DHT22;59335;46.652;21.272;2022-10-16T16:20:22;21.37;50.09
71514;DHT22;59335;46.652;21.272;2022-10-16T16:23:25;21.32;50.14
71514;DHT22;59335;46.652;21.272;2022-10-16T16:26:29;21.34;50.15
71514;DHT22;59335;46.652;21.272;2022-10-16T16:29:37;21.34;50.13
71514;DHT22;59335;46.652;21.272;2022-10-16T16:32:40;21.32;50.20
71514;DHT22;59335;46.652;21.272;2022-10-16T16:35:42;21.34;50.15
71514;DHT22;59335;46.652;21.272;2022-10-16T16:38:45;21.32;50.22
71514;DHT22;59335;46.652;21.272;2022-10-16T16:41:48;21.31;50.28
71514;DHT22;59335;46.652;21.272;2022-10-16T16:44:51;21.31;50.22
71514;DHT22;59335;46.652;21.272;2022-10-16T16:47:54;21.32;50.25
71514;DHT22;59335;46.652;21.272;2022-10-16T16:51:01;21.32;50.28
71514;DHT22;59335;46.652;21.272;2022-10-16T16:54:05;21.30;50.22
71514;DHT22;59335;46.652;21.272;2022-10-16T16:57:10;21.34;50.25
71514;DHT22;59335;46.652;21.272;2022-10-16T17:00:13;21.31;50.20
71514;DHT22;59335;46.652;21.272;2022-10-16T17:03:16;21.28;50.25
71514;DHT22;59335;46.652;21.272;2022-10-16T17:06:22;21.30;50.19
71514;DHT22;59335;46.652;21.272;2022-10-16T17:09:25;21.28;50.27
71514;DHT22;59335;46.652;21.272;2022-10-16T17:12:29;21.28;50.29
71514;DHT22;59335;46.652;21.272;2022-10-16T17:15:33;21.30;50.27
71514;DHT22;59335;46.652;21.272;2022-10-16T17:18:36;21.28;50.30
71514;DHT22;59335;46.652;21.272;2022-10-16T17:21:40;21.28;50.20
71514;DHT22;59335;46.652;21.272;2022-10-16T17:24:43;21.28;50.24
71514;DHT22;59335;46.652;21.272;2022-10-16T17:27:56;21.27;50.25
71514;DHT22;59335;46.652;21.272;2022-10-16T17:31:11;21.28;50.27
71514;DHT22;59335;46.652;21.272;2022-10-16T17:34:18;21.27;50.25
71514;DHT22;59335;46.652;21.272;2022-10-16T17:37:21;21.26;50.24
71514;DHT22;59335;46.652;21.272;2022-10-16T17:40:25;21.30;50.21
71514;DHT22;59335;46.652;21.272;2022-10-16T17:43:29;21.28;50.19
71514;DHT22;59335;46.652;21.272;2022-10-16T17:46:33;21.26;50.23
71514;DHT22;59335;46.652;21.272;2022-10-16T17:49:42;21.26;50.28
71514;DHT22;59335;46.652;21.272;2022-10-16T17:52:46;21.27;50.25
71514;DHT22;59335;46.652;21.272;2022-10-16T17:55:50;21.26;50.31
71514;DHT22;59335;46.652;21.272;2022-10-16T17:59:00;21.24;50.32
71514;DHT22;59335;46.652;21.272;2022-10-16T18:02:04;21.26;50.26
71514;DHT22;59335;46.652;21.272;2022-10-16T18:05:08;21.24;50.24
71514;DHT22;59335;46.652;21.272;2022-10-16T18:08:15;21.27;50.20
71514;DHT22;59335;46.652;21.272;2022-10-16T18:11:20;21.24;50.19
71514;DHT22;59335;46.652;21.272;2022-10-16T18:14:24;21.21;50.23
71514;DHT22;59335;46.652;21.272;2022-10-16T18:17:27;21.21;50.30
71514;DHT22;59335;46.652;21.272;2022-10-16T18:20:32;21.23;50.29
71514;DHT22;59335;46.652;21.272;2022-10-16T18:23:36;21.24;50.27
71514;DHT22;59335;46.652;21.272;2022-10-16T18:26:40;21.21;50.21
71514;DHT22;59335;46.652;21.272;2022-10-16T18:29:43;21.21;50.26
71514;DHT22;59335;46.652;21.272;2022-10-16T18:32:49;21.23;50.19
71514;DHT22;59335;46.652;21.272;2022-10-16T18:35:52;21.23;50.18
71514;DHT22;59335;46.652;21.272;2022-10-16T18:38:59;21.21;50.24
71514;DHT22;59335;46.652;21.272;2022-10-16T18:42:03;21.23;50.24
71514;DHT22;59335;46.652;21.272;2022-10-16T18:45:07;21.26;50.15
71514;DHT22;59335;46.652;21.272;2022-10-16T18:48:10;21.23;50.18
71514;DHT22;59335;46.652;21.272;2022-10-16T18:54:22;21.19;50.23
71514;DHT22;59335;46.652;21.272;2022-10-16T18:57:29;21.21;50.20
71514;DHT22;59335;46.652;21.272;2022-10-16T19:00:33;21.21;50.24
71514;DHT22;59335;46.652;21.272;2022-10-16T19:03:39;21.21;50.20
71514;DHT22;59335;46.652;21.272;2022-10-16T19:06:46;21.23;50.22
71514;DHT22;59335;46.652;21.272;2022-10-16T19:09:51;21.23;50.21
71514;DHT22;59335;46.652;21.272;2022-10-16T19:12:54;21.19;50.23
71514;DHT22;59335;46.652;21.272;2022-10-16T19:15:58;21.21;50.19
71514;DHT22;59335;46.652;21.272;2022-10-16T19:19:20;21.20;50.19
71514;DHT22;59335;46.652;21.272;2022-10-16T19:22:25;21.20;50.22
71514;DHT22;59335;46.652;21.272;2022-10-16T19:25:51;21.19;50.30
71514;DHT22;59335;46.652;21.272;2022-10-16T19:28:56;21.20;50.18
71514;DHT22;59335;46.652;21.272;2022-10-16T19:32:01;21.19;50.23
71514;DHT22;59335;46.652;21.272;2022-10-16T19:35:09;21.17;50.21
71514;DHT22;59335;46.652;21.272;2022-10-16T19:38:12;21.20;50.16
71514;DHT22;59335;46.652;21.272;2022-10-16T19:41:15;21.19;50.18
71514;DHT22;59335;46.652;21.272;2022-10-16T19:44:19;21.14;50.19
71514;DHT22;59335;46.652;21.272;2022-10-16T19:47:21;21.17;50.24
71514;DHT22;59335;46.652;21.272;2022-10-16T19:50:24;21.17;50.18
71514;DHT22;59335;46.652;21.272;2022-10-16T19:53:28;21.17;50.13
71514;DHT22;59335;46.652;21.272;2022-10-16T19:56:32;21.15;50.20
71514;DHT22;59335;46.652;21.272;2022-10-16T19:59:35;21.14;50.16
71514;DHT22;59335;46.652;21.272;2022-10-16T20:02:42;21.14;50.20
71514;DHT22;59335;46.652;21.272;2022-10-16T20:05:52;21.15;50.19
71514;DHT22;59335;46.652;21.272;2022-10-16T20:08:55;21.19;50.08
71514;DHT22;59335;46.652;21.272;2022-10-16T20:12:00;21.15;50.14
71514;DHT22;59335;46.652;21.272;2022-10-16T20:15:03;21.15;50.15
71514;DHT22;59335;46.652;21.272;2022-10-16T20:18:06;21.15;50.14
71514;DHT22;59335;46.652;21.272;2022-10-16T20:21:14;21.11;50.21
71514;DHT22;59335;46.652;21.272;2022-10-16T20:24:17;21.14;50.16
71514;DHT22;59335;46.652;21.272;2022-10-16T20:27:20;21.17;50.04
71514;DHT22;59335;46.652;21.272;2022-10-16T20:30:22;21.14;50.09
71514;DHT22;59335;46.652;21.272;2022-10-16T20:33:25;21.15;50.10
71514;DHT22;59335;46.652;21.272;2022-10-16T20:36:28;21.11;50.11
71514;DHT22;59335;46.652;21.272;2022-10-16T20:39:35;21.17;50.10
71514;DHT22;59335;46.652;21.272;2022-10-16T20:42:37;21.13;50.11
71514;DHT22;59335;46.652;21.272;2022-10-16T20:45:41;21.11;50.16
71514;DHT22;59335;46.652;21.272;2022-10-16T20:48:44;21.11;50.19
71514;DHT22;59335;46.652;21.272;2022-10-16T20:51:48;21.13;50.13
71514;DHT22;59335;46.652;21.272;2022-10-16T20:54:51;21.11;50.11
71514;DHT22;59335;46.652;21.272;2022-10-16T20:57:53;21.11;50.10
71514;DHT22;59335;46.652;21.272;2022-10-16T21:01:04;21.13;50.06
71514;DHT22;59335;46.652;21.272;2022-10-16T21:04:07;21.11;50.09
71514;DHT22;59335;46.652;21.272;2022-10-16T21:07:10;21.11;50.11